Terminal Aerodrome Forecast
Issued by NWS

Home | Current Version | Previous Version | Text Only | Print | Product List | Glossary On
Versions: 1 2 3 4 5 6 7 8 9 10 11 12
000
FTUS45 KLKN 251120
TAFELY
TAF
KELY 251120Z 2512/2612 28006KT 4SM -RASN BR OVC010
     FM251500 35008KT 6SM -RASN OVC015
     FM251900 35008KT P6SM SCT030 BKN050=

USA.gov is the U.S. government's official web portal to all federal, state and local government web resources and services.